Time;durP1;ratioP1;P1;durP2;ratioP2;P2;SDS_P1;SDS_P2;PMS_P1;PMS_P2;Temp;Humidity;BMP_temperature;BMP_pressure;BME280_temperature;BME280_humidity;BME280_pressure;Samples;Min_cycle;Max_cycle;Signal;HPM_P1;HPM_P2
2022/03/23 00:00:46;;;;;;;13.52;5.95;;;6.90;62.50;;;;;;5023487;28;20041;-77
2022/03/23 00:03:15;;;;;;;12.15;5.90;;;6.90;62.30;;;;;;5025022;28;20050;-77
2022/03/23 00:05:42;;;;;;;9.52;5.90;;;6.60;63.40;;;;;;5024349;28;20076;-76
2022/03/23 00:08:11;;;;;;;13.00;7.15;;;6.40;63.60;;;;;;5027034;28;20472;-77
2022/03/23 00:10:36;;;;;;;12.88;7.63;;;6.70;64.00;;;;;;5021248;28;20048;-77
2022/03/23 00:13:03;;;;;;;13.48;6.78;;;6.80;63.90;;;;;;5024586;28;20041;-76
2022/03/23 00:15:30;;;;;;;12.90;7.45;;;6.80;63.50;;;;;;5023709;28;20533;-76
2022/03/23 00:17:56;;;;;;;12.80;6.93;;;6.70;63.60;;;;;;5019116;28;20476;-76
2022/03/23 00:20:23;;;;;;;11.63;6.22;;;6.80;62.60;;;;;;5020169;28;20026;-77
2022/03/23 00:22:48;;;;;;;11.70;5.40;;;7.00;62.60;;;;;;5024030;28;20033;-76
2022/03/23 00:25:14;;;;;;;10.57;5.90;;;6.60;63.10;;;;;;5023690;28;20033;-76
2022/03/23 00:27:40;;;;;;;9.88;6.28;;;6.50;63.70;;;;;;5023170;28;20470;-77
2022/03/23 00:30:07;;;;;;;8.48;5.18;;;6.70;63.50;;;;;;5021633;28;20048;-76
2022/03/23 00:32:33;;;;;;;10.25;5.35;;;6.40;63.60;;;;;;5027011;28;20087;-77
2022/03/23 00:34:59;;;;;;;10.57;5.63;;;6.30;63.60;;;;;;5027283;28;20037;-76
2022/03/23 00:37:25;;;;;;;10.23;5.57;;;6.20;63.80;;;;;;5028989;28;20486;-76
2022/03/23 00:39:51;;;;;;;10.10;5.82;;;6.10;64.20;;;;;;5024859;28;20065;-76
2022/03/23 00:42:16;;;;;;;9.27;5.80;;;6.40;63.90;;;;;;5028832;28;20035;-75
2022/03/23 00:44:43;;;;;;;10.23;5.63;;;6.40;63.90;;;;;;5029174;28;20037;-76
2022/03/23 00:47:09;;;;;;;11.88;6.75;;;6.30;63.80;;;;;;5029558;28;20037;-76
2022/03/23 00:49:35;;;;;;;15.07;7.57;;;6.30;64.00;;;;;;5025764;28;20421;-76
2022/03/23 00:52:02;;;;;;;12.95;7.75;;;6.50;64.30;;;;;;5028995;28;20033;-76
2022/03/23 00:54:28;;;;;;;11.88;7.00;;;6.50;64.50;;;;;;5028340;28;20493;-77
2022/03/23 00:56:53;;;;;;;17.90;7.15;;;6.40;64.70;;;;;;5029956;28;20131;-76
2022/03/23 00:59:21;;;;;;;11.52;6.40;;;6.30;65.00;;;;;;5028273;28;20113;-75
2022/03/23 01:01:48;;;;;;;11.45;6.13;;;6.30;64.50;;;;;;5028651;28;20048;-76
2022/03/23 01:04:15;;;;;;;9.60;6.03;;;6.40;64.30;;;;;;5029978;28;20033;-76
2022/03/23 01:06:41;;;;;;;9.95;6.35;;;6.50;64.00;;;;;;5026623;28;20034;-76
2022/03/23 01:09:07;;;;;;;8.95;5.40;;;6.60;64.10;;;;;;5027968;28;20479;-76
2022/03/23 01:11:33;;;;;;;11.68;6.13;;;6.50;63.90;;;;;;5027705;28;20026;-76
2022/03/23 01:13:58;;;;;;;9.82;5.63;;;6.40;63.90;;;;;;5025315;28;20040;-76
2022/03/23 01:16:24;;;;;;;11.20;5.40;;;6.20;64.40;;;;;;5033261;28;20114;-76
2022/03/23 01:18:50;;;;;;;11.88;6.15;;;6.20;64.20;;;;;;5031580;28;20048;-76
2022/03/23 01:21:16;;;;;;;13.48;6.43;;;6.30;64.20;;;;;;5032047;28;20036;-76
2022/03/23 01:23:43;;;;;;;10.73;5.80;;;6.50;63.80;;;;;;5029727;28;20488;-75
2022/03/23 01:26:09;;;;;;;14.02;6.07;;;6.50;63.60;;;;;;5032521;28;20034;-76
2022/03/23 01:28:35;;;;;;;11.00;5.80;;;6.80;63.20;;;;;;5030763;28;20030;-77
2022/03/23 01:31:01;;;;;;;11.93;7.10;;;6.70;63.20;;;;;;5031207;28;20056;-76
2022/03/23 01:33:27;;;;;;;8.73;6.13;;;6.50;63.80;;;;;;5032121;28;20417;-76
2022/03/23 01:35:52;;;;;;;13.18;6.43;;;6.70;63.50;;;;;;5031340;28;20492;-75
2022/03/23 01:38:18;;;;;;;9.07;5.35;;;6.70;63.70;;;;;;5031435;28;20115;-76
2022/03/23 01:40:44;;;;;;;13.00;6.05;;;6.60;63.80;;;;;;5028910;28;20525;-76
2022/03/23 01:43:09;;;;;;;10.40;6.45;;;6.40;64.20;;;;;;5026022;28;20034;-76
2022/03/23 01:45:35;;;;;;;12.85;5.63;;;6.40;64.00;;;;;;5033329;28;20064;-76
2022/03/23 01:48:01;;;;;;;8.88;5.30;;;6.10;64.70;;;;;;5033056;28;20052;-76
2022/03/23 01:50:27;;;;;;;13.38;5.90;;;6.00;65.00;;;;;;5030120;28;20041;-75
2022/03/23 01:52:52;;;;;;;12.50;6.63;;;5.80;65.60;;;;;;5032747;28;20043;-76
2022/03/23 01:55:20;;;;;;;9.63;5.68;;;5.70;65.60;;;;;;5032080;28;20026;-76
2022/03/23 01:57:49;;;;;;;10.15;5.75;;;5.70;65.40;;;;;;5024919;28;20037;-76
2022/03/23 02:00:16;;;;;;;9.82;5.45;;;5.80;65.40;;;;;;5027898;28;20040;-76
2022/03/23 02:02:44;;;;;;;8.45;5.40;;;6.20;64.80;;;;;;5031317;28;20068;-76
2022/03/23 02:05:10;;;;;;;8.35;4.97;;;6.20;64.50;;;;;;5023944;28;20117;-76
2022/03/23 02:07:36;;;;;;;12.32;6.30;;;6.00;64.70;;;;;;5030226;28;20145;-75
2022/03/23 02:10:04;;;;;;;11.75;6.18;;;6.00;65.10;;;;;;5032319;28;20158;-76
2022/03/23 02:12:30;;;;;;;12.82;5.97;;;5.90;64.90;;;;;;5027306;28;20519;-75
2022/03/23 02:14:58;;;;;;;12.85;5.50;;;5.60;65.50;;;;;;5031718;28;20081;-76
2022/03/23 02:17:24;;;;;;;9.52;5.63;;;5.50;66.00;;;;;;5030394;28;20071;-75
2022/03/23 02:19:50;;;;;;;8.88;5.18;;;5.40;66.20;;;;;;5029211;28;20473;-75
2022/03/23 02:22:16;;;;;;;11.77;6.47;;;5.20;66.70;;;;;;5030411;28;20034;-76
2022/03/23 02:24:45;;;;;;;12.82;5.82;;;5.20;66.80;;;;;;5028205;28;20381;-76
2022/03/23 02:27:12;;;;;;;9.90;6.22;;;5.20;66.90;;;;;;5032074;28;20472;-75
2022/03/23 02:29:38;;;;;;;15.05;5.85;;;5.20;66.60;;;;;;5027255;28;20116;-75
2022/03/23 02:32:05;;;;;;;9.13;5.70;;;5.40;66.30;;;;;;5025591;28;20547;-76
2022/03/23 02:34:31;;;;;;;10.40;5.35;;;5.30;66.50;;;;;;5031625;28;20120;-75
2022/03/23 02:36:58;;;;;;;10.85;6.28;;;5.50;66.20;;;;;;5029599;28;20110;-76
2022/03/23 02:39:25;;;;;;;8.60;5.53;;;5.20;66.50;;;;;;5032226;28;20049;-76
2022/03/23 02:41:56;;;;;;;9.23;5.55;;;5.30;66.30;;;;;;5031239;28;20052;-76
2022/03/23 02:44:21;;;;;;;10.63;6.10;;;5.20;66.60;;;;;;5026983;28;20479;-75
2022/03/23 02:46:47;;;;;;;12.80;5.30;;;5.30;66.60;;;;;;5024098;28;20109;-76
2022/03/23 02:49:16;;;;;;;10.25;5.90;;;5.30;66.50;;;;;;5022848;28;20112;-75
2022/03/23 02:51:42;;;;;;;9.90;5.18;;;5.30;66.40;;;;;;5030566;28;20561;-76
2022/03/23 03:03:02;;;;;;;14.23;4.75;;;5.70;65.70;;;;;;5026026;28;20132;-76
2022/03/23 03:05:28;;;;;;;10.48;5.30;;;5.50;65.60;;;;;;5023066;28;20117;-76
2022/03/23 03:10:38;;;;;;;11.57;5.70;;;5.80;65.70;;;;;;5024329;28;20092;-76
2022/03/23 03:13:03;;;;;;;9.00;5.15;;;6.00;66.00;;;;;;5023390;28;20029;-76
2022/03/23 03:15:29;;;;;;;9.57;5.63;;;5.80;65.30;;;;;;5026957;28;20084;-77
2022/03/23 03:17:59;;;;;;;10.50;5.75;;;5.50;66.40;;;;;;5025015;28;20045;-76
2022/03/23 03:20:26;;;;;;;12.88;4.97;;;5.60;66.20;;;;;;5024537;28;20033;-75
2022/03/23 03:22:52;;;;;;;9.23;5.22;;;5.60;66.00;;;;;;5022363;28;20034;-76
2022/03/23 03:25:18;;;;;;;7.78;4.32;;;5.50;66.00;;;;;;5026299;28;20030;-76
2022/03/23 03:27:44;;;;;;;10.13;5.32;;;5.10;66.40;;;;;;5024866;28;20064;-76
2022/03/23 03:30:15;;;;;;;10.80;5.43;;;5.00;67.20;;;;;;5025046;28;20053;-76
2022/03/23 03:32:42;;;;;;;10.95;5.32;;;5.10;66.90;;;;;;5026003;28;20112;-76
2022/03/23 03:35:09;;;;;;;11.07;5.30;;;5.90;65.30;;;;;;5024891;28;20040;-76
2022/03/23 03:37:36;;;;;;;9.15;5.85;;;6.10;64.50;;;;;;5025792;28;20080;-76
2022/03/23 03:40:05;;;;;;;12.13;5.68;;;6.20;65.20;;;;;;5023485;28;20036;-76
2022/03/23 03:42:31;;;;;;;10.85;5.50;;;6.30;65.20;;;;;;5023530;28;20056;-76
2022/03/23 03:44:57;;;;;;;9.00;4.80;;;6.00;65.20;;;;;;5026489;28;20479;-76
2022/03/23 03:47:23;;;;;;;11.40;5.05;;;5.90;65.40;;;;;;5025359;28;20484;-76
2022/03/23 03:49:50;;;;;;;7.18;4.95;;;5.60;65.70;;;;;;5019826;28;20092;-76
2022/03/23 03:52:18;;;;;;;9.60;5.60;;;5.30;66.00;;;;;;5026044;28;20033;-77
2022/03/23 03:54:44;;;;;;;9.32;5.13;;;5.30;66.10;;;;;;5025381;28;20065;-76
2022/03/23 03:57:10;;;;;;;8.38;4.70;;;5.30;66.10;;;;;;5021691;28;20593;-76
2022/03/23 03:59:36;;;;;;;9.55;4.78;;;5.40;66.20;;;;;;5024816;28;20033;-76
2022/03/23 04:02:02;;;;;;;10.70;5.57;;;5.30;66.50;;;;;;5018198;28;20038;-75
2022/03/23 04:04:28;;;;;;;8.13;4.70;;;5.10;66.60;;;;;;5025328;28;20045;-75
2022/03/23 04:06:54;;;;;;;9.55;5.22;;;4.90;66.80;;;;;;5026489;28;20041;-74
2022/03/23 04:09:20;;;;;;;8.43;4.80;;;4.90;67.40;;;;;;5022117;28;20033;-74
2022/03/23 04:11:45;;;;;;;9.43;5.45;;;4.40;68.30;;;;;;5023851;28;20029;-74
2022/03/23 04:14:11;;;;;;;10.15;4.97;;;4.40;68.60;;;;;;5021010;28;20045;-74
2022/03/23 04:16:37;;;;;;;9.43;5.38;;;4.40;68.40;;;;;;5023376;28;20042;-75
2022/03/23 04:19:05;;;;;;;9.90;4.95;;;4.60;68.10;;;;;;5008897;28;20467;-76
2022/03/23 04:21:32;;;;;;;8.63;5.05;;;4.60;67.90;;;;;;5017156;28;20564;-74
2022/03/23 04:23:57;;;;;;;9.07;5.00;;;4.80;67.50;;;;;;5022003;28;20680;-74
2022/03/23 04:26:23;;;;;;;11.35;5.38;;;5.00;67.00;;;;;;5022807;28;20044;-74
2022/03/23 04:28:49;;;;;;;9.75;4.20;;;5.30;66.50;;;;;;5021138;28;20462;-76
2022/03/23 04:31:15;;;;;;;8.40;5.40;;;5.00;67.20;;;;;;5016492;28;20593;-74
2022/03/23 04:33:41;;;;;;;9.20;5.70;;;5.30;67.00;;;;;;5021864;28;20036;-75
2022/03/23 04:36:06;;;;;;;10.93;5.53;;;5.30;66.90;;;;;;5022627;28;20431;-76
2022/03/23 04:38:32;;;;;;;8.40;5.05;;;5.20;66.90;;;;;;5019329;28;20033;-74
2022/03/23 04:40:58;;;;;;;9.95;4.72;;;5.10;67.20;;;;;;5012220;28;20021;-74
2022/03/23 04:43:23;;;;;;;9.38;4.75;;;5.00;67.00;;;;;;5020782;28;20060;-74
2022/03/23 04:45:49;;;;;;;7.25;4.45;;;4.80;67.40;;;;;;5019085;28;20379;-74
2022/03/23 04:48:15;;;;;;;10.23;5.15;;;4.70;67.80;;;;;;5015315;28;20180;-75
2022/03/23 04:50:40;;;;;;;9.65;5.30;;;4.70;67.80;;;;;;5017623;28;21162;-74
2022/03/23 04:53:06;;;;;;;9.77;5.22;;;4.60;67.80;;;;;;5025583;28;20170;-75
2022/03/23 04:55:32;;;;;;;10.27;4.97;;;4.40;68.40;;;;;;5026107;28;20029;-74
2022/03/23 04:58:00;;;;;;;11.95;5.03;;;4.20;68.90;;;;;;5026436;28;20073;-75
2022/03/23 05:00:27;;;;;;;8.93;4.55;;;4.30;68.80;;;;;;5024352;28;20026;-75
2022/03/23 05:02:52;;;;;;;9.30;4.32;;;4.50;68.60;;;;;;5026189;28;20041;-75
2022/03/23 05:05:18;;;;;;;9.15;5.25;;;4.40;68.60;;;;;;5024119;28;20391;-75
2022/03/23 05:07:45;;;;;;;9.82;4.95;;;4.30;68.90;;;;;;5025964;28;20112;-74
2022/03/23 05:10:12;;;;;;;7.40;5.30;;;4.20;69.10;;;;;;5022453;28;20539;-75
2022/03/23 05:12:40;;;;;;;10.05;5.55;;;4.00;69.60;;;;;;5022529;28;20028;-75
2022/03/23 05:15:08;;;;;;;8.90;5.03;;;4.20;69.10;;;;;;5022481;28;20045;-75
2022/03/23 05:17:37;;;;;;;10.80;5.20;;;4.40;68.40;;;;;;5024662;28;20048;-76
2022/03/23 05:20:04;;;;;;;9.32;4.15;;;4.50;68.10;;;;;;5013812;28;20033;-75
2022/03/23 05:22:30;;;;;;;8.88;4.82;;;4.50;68.30;;;;;;5015831;28;21771;-74
2022/03/23 05:24:56;;;;;;;11.10;4.78;;;4.70;68.00;;;;;;5018506;28;20598;-74
2022/03/23 05:27:22;;;;;;;7.85;4.75;;;4.60;68.00;;;;;;5019545;28;20038;-75
2022/03/23 05:29:48;;;;;;;10.30;5.03;;;4.70;67.60;;;;;;5023993;28;20075;-75
2022/03/23 05:32:17;;;;;;;10.02;5.07;;;4.80;67.60;;;;;;5026087;28;20029;-74
2022/03/23 05:34:44;;;;;;;7.60;4.72;;;4.50;68.60;;;;;;5024537;28;20060;-75
2022/03/23 05:37:11;;;;;;;7.70;3.50;;;4.90;67.50;;;;;;5024432;28;20037;-75
2022/03/23 05:39:38;;;;;;;8.68;4.43;;;4.60;68.10;;;;;;5014604;28;20061;-74
2022/03/23 05:42:05;;;;;;;8.38;4.32;;;4.80;67.90;;;;;;5009985;28;20041;-75
2022/03/23 05:44:31;;;;;;;8.02;4.25;;;4.70;67.90;;;;;;5018847;28;20446;-74
2022/03/23 05:46:56;;;;;;;8.75;4.72;;;5.20;67.80;;;;;;5016750;28;20036;-74
2022/03/23 05:49:22;;;;;;;11.60;5.60;;;5.20;67.10;;;;;;5014047;28;20052;-74
2022/03/23 05:51:48;;;;;;;9.63;5.40;;;5.10;67.60;;;;;;5011916;28;20033;-75
2022/03/23 05:54:13;;;;;;;8.43;4.22;;;5.10;67.80;;;;;;5011246;28;20064;-74
2022/03/23 05:56:39;;;;;;;9.85;4.75;;;5.10;67.40;;;;;;5014955;28;20083;-74
2022/03/23 05:59:05;;;;;;;8.80;4.70;;;4.90;67.60;;;;;;5013154;28;20088;-75
2022/03/23 06:01:32;;;;;;;12.73;4.60;;;4.90;67.60;;;;;;5012729;28;20410;-75
2022/03/23 06:03:58;;;;;;;8.95;4.95;;;4.80;67.90;;;;;;5017410;28;20073;-76
2022/03/23 06:06:23;;;;;;;6.32;4.07;;;4.70;68.30;;;;;;5019587;28;20025;-76
2022/03/23 06:08:49;;;;;;;9.07;4.60;;;4.70;68.10;;;;;;5013331;28;20034;-74
2022/03/23 06:11:15;;;;;;;8.68;3.88;;;4.70;68.20;;;;;;5022876;28;20051;-74
2022/03/23 06:13:40;;;;;;;10.85;4.63;;;4.60;68.90;;;;;;5012731;28;20041;-74
2022/03/23 06:16:08;;;;;;;10.27;4.53;;;4.50;68.90;;;;;;5022529;28;20021;-75
2022/03/23 06:18:34;;;;;;;12.93;5.63;;;4.70;68.70;;;;;;5016667;28;20055;-76
2022/03/23 06:21:00;;;;;;;9.57;5.07;;;5.10;68.00;;;;;;5016540;28;20029;-74
2022/03/23 06:23:26;;;;;;;7.40;4.35;;;5.10;68.00;;;;;;5013011;28;20449;-74
2022/03/23 06:25:52;;;;;;;8.55;4.60;;;5.30;67.90;;;;;;5015657;28;20104;-74
2022/03/23 06:28:18;;;;;;;11.63;4.95;;;5.30;68.00;;;;;;5022400;28;20828;-75
2022/03/23 06:30:44;;;;;;;9.77;4.85;;;4.70;70.00;;;;;;5023356;28;20033;-74
2022/03/23 06:33:09;;;;;;;12.50;5.22;;;4.80;68.90;;;;;;5020460;28;20045;-74
2022/03/23 06:35:36;;;;;;;8.55;4.43;;;5.10;68.60;;;;;;5024916;28;20029;-73
2022/03/23 06:38:02;;;;;;;7.85;4.57;;;5.00;69.10;;;;;;5018802;28;20037;-74
2022/03/23 06:40:27;;;;;;;8.82;4.82;;;5.60;68.40;;;;;;5018669;28;20032;-74
2022/03/23 06:42:53;;;;;;;9.05;4.68;;;5.10;68.80;;;;;;5016697;28;20030;-74
2022/03/23 06:45:19;;;;;;;7.30;4.53;;;4.90;69.10;;;;;;5011843;28;20408;-74
2022/03/23 06:47:45;;;;;;;7.13;4.35;;;5.10;68.90;;;;;;5021647;28;20035;-74
2022/03/23 06:50:11;;;;;;;13.63;5.05;;;5.20;69.30;;;;;;5023510;28;20104;-73
2022/03/23 06:52:36;;;;;;;10.00;4.68;;;5.20;68.70;;;;;;5023650;28;20049;-73
2022/03/23 06:55:03;;;;;;;10.60;5.15;;;5.20;68.70;;;;;;5024706;28;20365;-73
2022/03/23 06:57:29;;;;;;;9.82;5.30;;;5.20;69.50;;;;;;5021890;28;20048;-73
2022/03/23 06:59:55;;;;;;;8.52;4.82;;;5.10;69.30;;;;;;5023280;28;20037;-74
2022/03/23 07:02:20;;;;;;;12.95;4.53;;;5.20;69.90;;;;;;5022892;28;20041;-73
2022/03/23 07:04:46;;;;;;;9.77;4.68;;;5.40;69.20;;;;;;5014491;28;20029;-73
2022/03/23 07:07:12;;;;;;;13.20;5.00;;;5.50;69.70;;;;;;5014364;28;20025;-73
2022/03/23 07:09:41;;;;;;;9.95;4.72;;;5.60;70.50;;;;;;5015129;28;20426;-73
2022/03/23 07:12:11;;;;;;;12.27;4.97;;;5.60;69.20;;;;;;5024073;28;20059;-73
2022/03/23 07:14:38;;;;;;;10.60;4.57;;;5.60;69.50;;;;;;5023724;28;20184;-74
2022/03/23 07:17:05;;;;;;;19.77;6.38;;;5.90;68.20;;;;;;5024981;28;20102;-74
2022/03/23 07:19:31;;;;;;;9.60;4.35;;;6.00;68.00;;;;;;5022845;28;20030;-74
2022/03/23 07:21:57;;;;;;;9.75;4.93;;;6.10;67.50;;;;;;5022973;28;20384;-74
2022/03/23 07:24:23;;;;;;;9.30;4.88;;;6.00;67.80;;;;;;5023724;28;20636;-74
2022/03/23 07:26:49;;;;;;;7.18;4.43;;;6.10;67.50;;;;;;5023659;28;20120;-74
2022/03/23 07:29:15;;;;;;;9.32;4.88;;;6.10;68.90;;;;;;5024027;28;20543;-74
2022/03/23 07:31:41;;;;;;;12.00;5.20;;;6.20;68.30;;;;;;5022065;28;20029;-73
2022/03/23 07:34:08;;;;;;;8.52;4.93;;;6.20;68.70;;;;;;5023680;28;20071;-74
2022/03/23 07:36:34;;;;;;;7.85;4.47;;;6.20;68.90;;;;;;5022231;28;20078;-74
2022/03/23 07:39:00;;;;;;;9.77;4.85;;;6.20;69.10;;;;;;5019924;28;20045;-74
2022/03/23 07:41:25;;;;;;;9.30;5.07;;;6.30;69.60;;;;;;5023775;28;20029;-73
2022/03/23 07:43:51;;;;;;;9.25;4.40;;;6.40;69.10;;;;;;5023862;28;20086;-73
2022/03/23 07:46:20;;;;;;;9.63;5.30;;;6.50;68.70;;;;;;5022399;28;20033;-73
2022/03/23 07:48:46;;;;;;;8.63;4.97;;;6.50;68.40;;;;;;5023270;28;20044;-74
2022/03/23 07:51:12;;;;;;;9.73;4.68;;;6.60;68.20;;;;;;5012921;28;20025;-74
2022/03/23 07:53:38;;;;;;;7.53;5.03;;;6.60;68.30;;;;;;5016905;28;20033;-73
2022/03/23 07:56:04;;;;;;;9.88;4.57;;;6.60;67.70;;;;;;5016463;28;20045;-72
2022/03/23 07:58:30;;;;;;;6.90;4.50;;;6.60;67.60;;;;;;5014990;28;20036;-72
2022/03/23 08:00:56;;;;;;;8.85;4.88;;;6.70;68.80;;;;;;5021551;28;20033;-72
2022/03/23 08:03:22;;;;;;;10.18;4.85;;;6.80;68.10;;;;;;5021372;28;20136;-72
2022/03/23 08:05:48;;;;;;;8.43;5.03;;;6.80;68.00;;;;;;5022486;28;20166;-73
2022/03/23 08:08:14;;;;;;;9.52;4.88;;;6.90;67.80;;;;;;5016820;28;20044;-72
2022/03/23 08:10:41;;;;;;;10.32;5.13;;;6.90;68.00;;;;;;5020324;28;20356;-72
2022/03/23 08:13:09;;;;;;;11.02;5.65;;;6.80;68.00;;;;;;5015734;28;20041;-72
2022/03/23 08:15:39;;;;;;;10.43;5.20;;;6.80;67.60;;;;;;5021932;28;20590;-72
2022/03/23 08:18:05;;;;;;;10.63;5.38;;;6.90;67.80;;;;;;5021216;28;20037;-72
2022/03/23 08:20:35;;;;;;;8.98;4.55;;;6.90;67.00;;;;;;5022998;28;20203;-72
2022/03/23 08:23:05;;;;;;;11.52;5.13;;;7.00;67.10;;;;;;5024291;28;20025;-72
2022/03/23 08:25:31;;;;;;;8.57;4.93;;;7.00;67.20;;;;;;5028131;28;20523;-72
2022/03/23 08:27:58;;;;;;;9.18;5.35;;;7.10;68.00;;;;;;5028699;28;20112;-72
2022/03/23 08:30:24;;;;;;;9.05;5.78;;;7.20;67.80;;;;;;5026626;28;20036;-72
2022/03/23 08:32:50;;;;;;;9.52;5.25;;;7.30;66.40;;;;;;5028536;28;20079;-72
2022/03/23 08:35:16;;;;;;;9.52;5.45;;;7.40;67.00;;;;;;5027302;28;20098;-72
2022/03/23 08:37:42;;;;;;;12.00;5.00;;;7.50;67.70;;;;;;5027723;28;20045;-72
2022/03/23 08:40:08;;;;;;;10.98;4.93;;;7.70;68.10;;;;;;5028765;28;20391;-72
2022/03/23 08:42:34;;;;;;;9.60;5.18;;;7.80;68.30;;;;;;5028872;28;20040;-72
2022/03/23 08:45:00;;;;;;;11.40;5.85;;;7.90;68.20;;;;;;5028266;28;20037;-72
2022/03/23 08:47:27;;;;;;;10.43;4.47;;;7.90;67.50;;;;;;5027776;28;20112;-72
2022/03/23 08:49:54;;;;;;;10.63;4.60;;;8.00;66.60;;;;;;5029357;28;20060;-72
2022/03/23 08:52:20;;;;;;;9.80;5.05;;;8.00;67.40;;;;;;5028632;28;20025;-72
2022/03/23 08:54:45;;;;;;;9.65;5.18;;;8.10;67.90;;;;;;5027901;28;20052;-73
2022/03/23 08:57:11;;;;;;;10.45;5.25;;;8.10;66.40;;;;;;5029715;28;20319;-73
2022/03/23 08:59:36;;;;;;;9.30;5.80;;;8.00;65.90;;;;;;5028867;28;20044;-72
2022/03/23 09:02:02;;;;;;;9.20;5.07;;;8.10;66.60;;;;;;5028345;28;20433;-73
2022/03/23 09:04:28;;;;;;;10.05;4.93;;;8.20;66.70;;;;;;5018248;28;20033;-74
2022/03/23 09:06:53;;;;;;;11.43;5.63;;;8.40;66.90;;;;;;5022240;28;20033;-74
2022/03/23 09:09:19;;;;;;;10.00;4.72;;;8.50;66.50;;;;;;5019988;28;20037;-74
2022/03/23 09:11:46;;;;;;;9.13;4.90;;;8.50;65.60;;;;;;5015488;28;20060;-73
2022/03/23 09:14:12;;;;;;;11.88;4.88;;;8.70;66.40;;;;;;5018234;28;20116;-73
2022/03/23 09:16:39;;;;;;;10.63;4.88;;;8.90;65.30;;;;;;5028900;28;20029;-73
2022/03/23 09:19:05;;;;;;;6.97;4.45;;;8.90;64.90;;;;;;5028423;28;20145;-73
2022/03/23 09:21:32;;;;;;;10.30;5.18;;;8.90;64.50;;;;;;5027524;28;20025;-74
2022/03/23 09:23:58;;;;;;;14.52;5.60;;;9.90;65.30;;;;;;5023125;28;20028;-73
2022/03/23 09:26:24;;;;;;;7.55;5.45;;;13.80;61.80;;;;;;5026597;28;20395;-74
2022/03/23 09:28:51;;;;;;;13.73;5.70;;;16.20;58.20;;;;;;5028595;28;20029;-73
2022/03/23 09:31:17;;;;;;;9.50;4.57;;;16.40;56.30;;;;;;5028937;28;20138;-74
2022/03/23 09:33:44;;;;;;;9.00;4.72;;;16.80;55.40;;;;;;5034969;28;20087;-74
2022/03/23 09:38:54;;;;;;;9.80;5.13;;;17.50;54.70;;;;;;5022543;28;20055;-73
2022/03/23 09:41:20;;;;;;;9.57;5.47;;;16.30;54.20;;;;;;5024971;28;20021;-74
2022/03/23 09:43:46;;;;;;;11.75;4.85;;;14.40;56.00;;;;;;5023324;28;20369;-74
2022/03/23 09:46:12;;;;;;;10.20;4.88;;;12.80;58.10;;;;;;5022636;28;20108;-74
2022/03/23 09:48:38;;;;;;;10.30;5.03;;;12.10;60.20;;;;;;5010185;28;20104;-74
2022/03/23 09:51:05;;;;;;;39.85;6.70;;;11.70;60.10;;;;;;5016647;28;20107;-73
2022/03/23 09:53:33;;;;;;;11.98;5.25;;;11.60;60.60;;;;;;5015840;28;20567;-74
2022/03/23 09:55:58;;;;;;;17.25;4.97;;;11.50;61.20;;;;;;5021231;28;20446;-73
2022/03/23 09:58:24;;;;;;;9.68;5.15;;;11.40;61.30;;;;;;5022283;28;20042;-73
2022/03/23 10:00:50;;;;;;;12.63;4.85;;;11.20;60.30;;;;;;5024912;28;20036;-74
2022/03/23 10:03:45;;;;;;;8.73;4.93;;;11.20;60.30;;;;;;5024528;28;20038;-74
2022/03/23 10:06:44;;;;;;;10.02;5.10;;;11.30;60.50;;;;;;5025105;28;20092;-74
2022/03/23 10:09:34;;;;;;;9.27;5.30;;;11.40;60.10;;;;;;5012167;28;20044;-74
2022/03/23 10:12:19;;;;;;;14.80;5.07;;;11.40;61.10;;;;;;5012355;28;20026;-74
2022/03/23 10:14:45;;;;;;;9.90;5.50;;;11.40;60.10;;;;;;5014235;28;20078;-73
2022/03/23 10:17:49;;;;;;;13.13;5.18;;;11.70;61.80;;;;;;5012434;28;20403;-73
2022/03/23 10:20:14;;;;;;;11.00;4.63;;;11.80;62.40;;;;;;5013937;28;20075;-73
2022/03/23 10:22:49;;;;;;;15.20;5.18;;;11.80;60.00;;;;;;5009509;28;20395;-74
2022/03/23 10:25:16;;;;;;;7.40;4.13;;;11.90;60.70;;;;;;5017084;28;20029;-74
2022/03/23 10:27:42;;;;;;;10.68;4.70;;;12.10;60.60;;;;;;5020305;28;20526;-73
2022/03/23 10:30:09;;;;;;;11.18;6.10;;;12.20;60.50;;;;;;5022147;28;20037;-74
2022/03/23 10:32:36;;;;;;;9.98;4.97;;;12.30;60.00;;;;;;5025059;28;20064;-74
2022/03/23 10:35:04;;;;;;;7.20;4.15;;;12.20;60.50;;;;;;5022117;28;20029;-74
2022/03/23 10:37:34;;;;;;;8.25;4.95;;;12.20;60.10;;;;;;5024496;28;20033;-74
2022/03/23 10:40:09;;;;;;;11.40;5.25;;;12.20;60.10;;;;;;5023624;28;20025;-73
2022/03/23 10:42:38;;;;;;;9.27;4.95;;;12.50;59.70;;;;;;5023068;28;20037;-74
2022/03/23 10:45:11;;;;;;;8.02;4.68;;;12.60;61.30;;;;;;5023063;28;20388;-74
2022/03/23 10:47:38;;;;;;;8.57;4.90;;;12.80;61.10;;;;;;5024588;28;20084;-74
2022/03/23 10:50:14;;;;;;;8.48;4.82;;;12.80;59.40;;;;;;5023888;28;20036;-74
2022/03/23 10:52:53;;;;;;;10.27;5.22;;;12.80;60.30;;;;;;5014821;28;20037;-74
2022/03/23 10:55:19;;;;;;;10.10;5.43;;;12.80;58.80;;;;;;5024578;28;20113;-73
2022/03/23 10:57:51;;;;;;;8.93;4.57;;;13.00;59.30;;;;;;5022226;28;20041;-74
2022/03/23 11:00:42;;;;;;;12.27;5.43;;;13.00;59.20;;;;;;5023546;28;20037;-74
2022/03/23 11:03:09;;;;;;;10.07;4.93;;;13.10;58.50;;;;;;5017126;28;20131;-74
2022/03/23 11:05:39;;;;;;;8.60;4.65;;;13.10;58.50;;;;;;5024466;28;20380;-74
2022/03/23 11:08:06;;;;;;;9.23;4.72;;;13.20;59.30;;;;;;5022923;28;20563;-74
2022/03/23 11:16:09;;;;;;;11.38;4.72;;;13.80;58.90;;;;;;5024526;28;20981;-74
2022/03/23 11:18:35;;;;;;;7.93;4.20;;;13.80;58.00;;;;;;5021329;28;20096;-74
2022/03/23 11:21:01;;;;;;;8.05;4.65;;;13.80;57.60;;;;;;5021666;28;20108;-74
2022/03/23 11:23:33;;;;;;;9.95;5.07;;;14.10;57.60;;;;;;5020647;28;20135;-74
2022/03/23 11:26:10;;;;;;;10.05;4.32;;;14.30;57.40;;;;;;5016703;28;20021;-74
2022/03/23 11:28:41;;;;;;;6.10;4.07;;;14.10;57.20;;;;;;5023817;28;20033;-74
2022/03/23 11:31:09;;;;;;;8.20;4.43;;;14.10;58.50;;;;;;5022717;28;20443;-74
2022/03/23 11:33:35;;;;;;;8.55;4.18;;;14.40;57.70;;;;;;5023499;28;20033;-74
2022/03/23 11:36:04;;;;;;;10.48;5.07;;;14.30;56.20;;;;;;5021960;28;20874;-75
2022/03/23 11:38:33;;;;;;;7.63;4.05;;;14.40;57.30;;;;;;5022285;28;20037;-74
2022/03/23 11:41:00;;;;;;;7.63;4.25;;;14.70;56.80;;;;;;5023238;28;20028;-74
2022/03/23 11:43:29;;;;;;;8.15;4.25;;;15.00;57.80;;;;;;5023939;28;20033;-75
2022/03/23 11:45:56;;;;;;;8.80;4.03;;;15.20;56.90;;;;;;5023426;28;20033;-73
2022/03/23 11:48:47;;;;;;;8.43;4.32;;;15.20;56.10;;;;;;5022588;28;20104;-75
2022/03/23 11:51:31;;;;;;;8.70;4.38;;;15.30;56.00;;;;;;5022985;28;20022;-74
2022/03/23 11:57:22;;;;;;;13.30;4.72;;;15.70;56.40;;;;;;5013944;28;20048;-74
2022/03/23 11:59:48;;;;;;;9.90;3.83;;;15.80;56.40;;;;;;5021026;28;20033;-74
2022/03/23 12:02:18;;;;;;;8.00;4.85;;;15.80;55.40;;;;;;5019420;28;20029;-74
2022/03/23 12:04:44;;;;;;;8.55;4.50;;;15.70;54.90;;;;;;5023546;28;20044;-74
2022/03/23 12:07:11;;;;;;;8.00;4.15;;;15.60;54.30;;;;;;5023843;28;20433;-74
2022/03/23 12:09:41;;;;;;;6.88;3.78;;;15.60;56.30;;;;;;5021612;28;20029;-74
2022/03/23 12:12:10;;;;;;;9.43;4.00;;;16.00;55.90;;;;;;5016314;28;20127;-73
2022/03/23 12:14:38;;;;;;;7.90;4.45;;;15.70;54.70;;;;;;5012715;28;20034;-73
2022/03/23 12:17:03;;;;;;;6.57;3.70;;;15.80;56.20;;;;;;5013686;28;20444;-72
2022/03/23 12:19:32;;;;;;;7.43;4.07;;;16.10;56.00;;;;;;5006294;28;20048;-73
2022/03/23 12:22:14;;;;;;;10.02;4.25;;;16.20;55.10;;;;;;5012946;28;20566;-72
2022/03/23 12:25:06;;;;;;;10.27;4.55;;;16.00;54.90;;;;;;5011582;28;20053;-73
2022/03/23 12:28:09;;;;;;;9.98;4.05;;;16.20;55.90;;;;;;5012613;28;21550;-73
2022/03/23 12:30:40;;;;;;;7.78;4.00;;;16.20;55.20;;;;;;5022189;28;20128;-73
2022/03/23 12:33:19;;;;;;;9.15;3.97;;;16.30;54.90;;;;;;5022465;28;20048;-72
2022/03/23 12:35:49;;;;;;;7.80;3.42;;;16.60;54.90;;;;;;5022475;28;20068;-73
2022/03/23 12:38:26;;;;;;;7.38;4.10;;;16.60;54.30;;;;;;5018988;28;20056;-73
2022/03/23 12:40:56;;;;;;;8.52;3.53;;;16.80;54.50;;;;;;5018337;28;20189;-73
2022/03/23 12:43:39;;;;;;;6.75;3.50;;;16.90;53.70;;;;;;5018537;28;20514;-73
2022/03/23 12:46:26;;;;;;;8.63;3.30;;;17.30;55.40;;;;;;5021189;28;20109;-73
2022/03/23 12:57:51;;;;;;;6.45;4.25;;;17.60;53.20;;;;;;5019633;28;20064;-73
2022/03/23 13:00:30;;;;;;;7.95;3.85;;;17.60;53.30;;;;;;5023009;28;20033;-73
2022/03/23 13:03:05;;;;;;;7.80;4.18;;;17.40;51.70;;;;;;5021320;28;20079;-73
2022/03/23 13:05:58;;;;;;;8.45;3.53;;;17.70;52.10;;;;;;5023167;28;20038;-73
2022/03/23 13:08:30;;;;;;;5.78;3.10;;;17.80;53.60;;;;;;5009047;28;20045;-73
2022/03/23 13:10:58;;;;;;;6.72;3.58;;;17.90;51.60;;;;;;5015979;28;20692;-73
2022/03/23 13:13:29;;;;;;;4.93;3.40;;;17.70;51.10;;;;;;5014812;28;20142;-73
2022/03/23 13:15:55;;;;;;;4.95;3.15;;;17.80;52.50;;;;;;5015415;28;20430;-73
2022/03/23 13:18:26;;;;;;;6.90;3.42;;;17.80;51.40;;;;;;5015130;28;20041;-73
2022/03/23 13:20:54;;;;;;;7.35;3.78;;;17.80;51.70;;;;;;5014950;28;20123;-73
2022/03/23 13:23:20;;;;;;;7.30;3.15;;;17.70;52.10;;;;;;5025528;28;20072;-73
2022/03/23 13:25:59;;;;;;;5.80;3.40;;;18.20;52.80;;;;;;5026244;28;20572;-73